Photometre #741[NE_1.6] Arcachon AOT

File : 20221127_741.hum

27/11/2022,08:18:08,TEMP=5.2,BA=5.48,STAT.A=1.5,ExtBa=12.71
27/11/2022,08:22:53,TEMP=5.5,BA=5.56,STAT.A=1.5,ExtBa=12.61
27/11/2022,08:28:32,TEMP=5.8,BA=5.56,STAT.A=1.5,ExtBa=12.70
27/11/2022,08:35:21,TEMP=6.2,BA=5.40,STAT.A=1.5,ExtBa=12.72
27/11/2022,08:43:44,TEMP=6.4,BA=5.64,STAT.A=1.5,ExtBa=12.60
27/11/2022,08:52:33,TEMP=6.5,BA=5.64,STAT.F,ExtBa=12.58
27/11/2022,09:07:31,TEMP=7.0,BA=5.36,STAT.D=1.5,ExtBa=12.43
27/11/2022,09:22:31,TEMP=7.1,BA=5.64,STAT.D=1.5,ExtBa=12.66
27/11/2022,09:37:31,TEMP=8.0,BA=5.64,STAT.D=1.5,ExtBa=12.89
27/11/2022,09:52:33,TEMP=8.7,BA=5.64,STAT.F,ExtBa=12.97
27/11/2022,10:09:35,TEMP=9.4,BA=5.40,STAT.D=1.5,ExtBa=12.70
27/11/2022,10:22:31,TEMP=9.9,BA=5.64,STAT.D=1.5,ExtBa=13.41
27/11/2022,10:37:31,TEMP=11.0,BA=5.64,STAT.D=1.5,ExtBa=13.40
27/11/2022,10:52:33,TEMP=11.9,BA=5.64,STAT.F,ExtBa=13.49
27/11/2022,11:07:32,TEMP=12.2,BA=5.40,STAT.D=1.5,ExtBa=12.57
27/11/2022,11:22:32,TEMP=12.2,BA=5.64,STAT.D=2.0,ExtBa=13.15
27/11/2022,11:37:32,TEMP=12.5,BA=5.64,STAT.D=2.0,ExtBa=13.29
27/11/2022,11:52:33,TEMP=12.9,BA=5.64,STAT.F,ExtBa=13.25
27/11/2022,12:07:32,TEMP=13.6,BA=5.40,STAT.D=2.0,ExtBa=12.73
27/11/2022,12:22:32,TEMP=14.1,BA=5.64,STAT.D=2.0,ExtBa=13.13
27/11/2022,12:37:32,TEMP=14.7,BA=5.64,STAT.D=2.0,ExtBa=13.39
27/11/2022,12:52:33,TEMP=15.5,BA=5.64,STAT.F,ExtBa=13.38
27/11/2022,13:07:31,TEMP=16.3,BA=5.40,STAT.D=2.0,ExtBa=12.61
27/11/2022,13:22:31,TEMP=16.0,BA=5.64,STAT.D=2.0,ExtBa=13.07
27/11/2022,13:37:31,TEMP=16.3,BA=5.64,STAT.D=2.0,ExtBa=13.30
27/11/2022,13:52:33,TEMP=16.2,BA=5.64,STAT.F,ExtBa=13.06
27/11/2022,14:07:31,TEMP=16.2,BA=5.40,STAT.D=2.0,ExtBa=12.55
27/11/2022,14:22:31,TEMP=15.8,BA=5.64,STAT.D=2.0,ExtBa=12.72
27/11/2022,14:37:31,TEMP=15.5,BA=5.64,STAT.D=2.0,ExtBa=12.69
27/11/2022,14:52:33,TEMP=15.0,BA=5.64,STAT.F,ExtBa=12.67
27/11/2022,15:01:21,TEMP=14.7,BA=5.60,STAT.A=2.0,ExtBa=12.66
27/11/2022,15:09:45,TEMP=14.6,BA=5.60,STAT.A=2.0,ExtBa=12.65
27/11/2022,15:16:34,TEMP=14.4,BA=5.36,STAT.A=2.0,ExtBa=12.63
27/11/2022,15:22:11,TEMP=14.3,BA=5.44,STAT.A=2.0,ExtBa=12.63
27/11/2022,15:26:56,TEMP=14.2,BA=5.44,STAT.A=2.0,ExtBa=12.62